createdAt,value
2018-08-11T00:02:13.565Z,59.80
2018-08-11T00:04:47.487Z,59.30
2018-08-11T00:07:19.727Z,59.80
2018-08-11T00:09:51.164Z,59.60
2018-08-11T00:12:33.477Z,59.30
2018-08-11T00:15:05.149Z,59.20
2018-08-11T00:17:35.678Z,59.50
2018-08-11T00:20:09.016Z,59.60
2018-08-11T00:22:39.668Z,59.70
2018-08-11T00:25:13.649Z,59.50
2018-08-11T00:27:46.693Z,60.10
2018-08-11T00:30:21.177Z,60.60
2018-08-11T00:32:51.756Z,60.40
2018-08-11T00:35:22.747Z,61.90
2018-08-11T00:37:53.481Z,62.50
2018-08-11T00:40:24.465Z,62.50
2018-08-11T00:42:55.190Z,63.40
2018-08-11T00:45:26.219Z,63.10
2018-08-11T00:47:56.857Z,63.00
2018-08-11T00:50:32.265Z,62.60
2018-08-11T00:53:02.878Z,63.10
2018-08-11T00:55:33.426Z,62.70
2018-08-11T00:58:04.124Z,62.70
2018-08-11T01:00:35.339Z,62.90
2018-08-11T01:03:06.647Z,63.80
2018-08-11T01:05:37.433Z,64.10
2018-08-11T01:08:08.040Z,64.20
2018-08-11T01:10:39.781Z,64.10
2018-08-11T01:13:10.372Z,64.50
2018-08-11T01:15:41.022Z,65.60
2018-08-11T01:18:11.355Z,65.00
2018-08-11T01:20:42.909Z,65.10
2018-08-11T01:23:13.430Z,65.10
2018-08-11T01:25:47.422Z,65.60
2018-08-11T01:28:18.285Z,66.40
2018-08-11T01:30:49.777Z,66.30
2018-08-11T01:33:20.225Z,67.20
2018-08-11T01:35:50.902Z,68.00
2018-08-11T01:38:21.252Z,68.20
2018-08-11T01:40:51.867Z,68.60
2018-08-11T01:43:22.661Z,69.70
2018-08-11T01:45:53.419Z,70.00
2018-08-11T01:48:24.004Z,70.90
2018-08-11T01:50:54.595Z,71.10
2018-08-11T01:53:25.269Z,71.90
2018-08-11T01:55:55.818Z,72.20
2018-08-11T01:58:26.318Z,72.60
2018-08-11T02:00:57.064Z,74.40
2018-08-11T02:03:27.476Z,75.90
2018-08-11T02:05:58.048Z,75.50
2018-08-11T02:08:28.751Z,76.20
2018-08-11T02:10:59.429Z,76.20
2018-08-11T02:13:29.873Z,76.10
2018-08-11T02:16:00.296Z,76.80
2018-08-11T02:18:31.059Z,76.50
2018-08-11T02:21:02.264Z,77.00
2018-08-11T02:23:32.714Z,78.30
2018-08-11T02:26:04.162Z,79.00
2018-08-11T02:28:34.838Z,79.60
2018-08-11T02:31:05.122Z,80.30
2018-08-11T02:33:35.629Z,81.10
2018-08-11T02:36:06.097Z,82.50
2018-08-11T02:38:36.692Z,82.50
2018-08-11T02:41:07.025Z,81.80
2018-08-11T02:43:37.542Z,81.80
2018-08-11T02:46:08.232Z,82.10
2018-08-11T02:48:38.728Z,82.70
2018-08-11T02:51:09.192Z,83.70
2018-08-11T02:53:40.171Z,84.80
2018-08-11T02:56:10.501Z,85.30
2018-08-11T02:58:41.213Z,86.20
2018-08-11T03:01:11.743Z,85.10
2018-08-11T03:03:42.237Z,86.10
2018-08-11T03:06:12.915Z,86.50
2018-08-11T03:08:43.414Z,87.10
2018-08-11T03:11:15.944Z,87.10
2018-08-11T03:13:48.237Z,87.80
2018-08-11T03:16:20.442Z,87.50
2018-08-11T03:18:52.670Z,88.60
2018-08-11T03:21:25.085Z,88.60
2018-08-11T03:23:57.277Z,89.10
2018-08-11T03:26:29.660Z,89.80
2018-08-11T03:29:01.596Z,90.10
2018-08-11T03:31:33.679Z,90.00
2018-08-11T03:34:05.661Z,90.10
2018-08-11T03:36:37.839Z,90.10
2018-08-11T03:39:13.153Z,90.50
2018-08-11T03:41:45.358Z,90.80
2018-08-11T03:44:17.549Z,91.00
2018-08-11T03:46:49.714Z,91.00
2018-08-11T03:49:22.075Z,91.10
2018-08-11T03:51:52.485Z,91.10
2018-08-11T03:54:22.851Z,91.00
2018-08-11T03:56:53.791Z,91.20
2018-08-11T03:59:25.166Z,91.90
2018-08-11T04:01:55.966Z,92.00
2018-08-11T04:04:26.441Z,92.10
2018-08-11T04:06:57.202Z,92.50
2018-08-11T04:09:27.584Z,93.30
2018-08-11T04:11:59.853Z,93.60
2018-08-11T04:14:32.044Z,93.90
2018-08-11T04:17:04.191Z,94.20
2018-08-11T04:19:36.514Z,94.50
2018-08-11T04:22:08.804Z,94.80
2018-08-11T04:24:41.003Z,95.10
2018-08-11T04:27:11.565Z,95.30
2018-08-11T04:29:41.811Z,95.40
2018-08-11T04:32:13.975Z,95.50
2018-08-11T04:34:46.181Z,95.90
2018-08-11T04:37:18.411Z,96.40
2018-08-11T04:39:48.689Z,96.40
2018-08-11T04:42:21.012Z,96.70
2018-08-11T04:44:51.581Z,96.60
2018-08-11T04:47:22.095Z,96.70
2018-08-11T04:49:52.552Z,96.80
2018-08-11T04:52:23.121Z,97.00
2018-08-11T04:54:55.352Z,97.20
2018-08-11T04:57:27.914Z,97.30
2018-08-11T05:00:00.168Z,97.30
2018-08-11T05:02:32.363Z,97.30
2018-08-11T05:05:04.743Z,97.60
2018-08-11T05:07:37.126Z,97.90
2018-08-11T05:10:09.959Z,98.50
2018-08-11T05:12:43.169Z,98.60
2018-08-11T05:15:15.100Z,98.60
2018-08-11T05:17:47.562Z,98.80
2018-08-11T05:20:19.601Z,99.00
2018-08-11T05:22:53.372Z,99.20
2018-08-11T05:25:25.557Z,99.40
2018-08-11T05:27:57.797Z,99.90
2018-08-11T05:30:29.863Z,99.90
2018-08-11T05:33:02.015Z,99.90
2018-08-11T05:35:34.078Z,99.90
2018-08-11T05:38:06.214Z,99.90
2018-08-11T05:40:38.345Z,99.90
2018-08-11T05:43:10.731Z,99.90
2018-08-11T05:45:42.808Z,99.90
2018-08-11T05:48:14.842Z,99.90
2018-08-11T05:50:47.326Z,99.90
2018-08-11T05:53:19.557Z,99.90
2018-08-11T05:55:51.914Z,99.90
2018-08-11T05:58:24.152Z,99.90
2018-08-11T06:00:56.264Z,99.90
2018-08-11T06:03:28.364Z,99.90
2018-08-11T06:06:00.448Z,99.90
2018-08-11T06:08:32.920Z,99.90
2018-08-11T06:11:04.947Z,99.90
2018-08-11T06:13:37.143Z,99.90
2018-08-11T06:16:09.356Z,99.90
2018-08-11T06:18:41.742Z,99.90
2018-08-11T06:21:13.930Z,99.90
2018-08-11T06:23:46.328Z,99.90
2018-08-11T06:26:18.660Z,99.90
2018-08-11T06:28:51.397Z,99.90
2018-08-11T06:31:23.593Z,99.90
2018-08-11T06:33:56.153Z,99.90
2018-08-11T06:36:28.278Z,99.90
2018-08-11T06:39:00.521Z,99.90
2018-08-11T06:41:32.603Z,99.90
2018-08-11T06:44:05.009Z,99.90
2018-08-11T06:46:37.077Z,99.90
2018-08-11T06:49:09.826Z,99.90
2018-08-11T06:51:42.765Z,99.90
2018-08-11T06:54:15.179Z,99.90
2018-08-11T06:56:47.332Z,99.90
2018-08-11T06:59:19.568Z,99.90
2018-08-11T07:01:52.135Z,99.90
2018-08-11T07:04:24.095Z,99.90
2018-08-11T07:06:56.304Z,99.90
2018-08-11T07:09:28.588Z,99.90
2018-08-11T07:12:00.713Z,99.90
2018-08-11T07:14:32.911Z,99.90
2018-08-11T07:17:04.977Z,99.90
2018-08-11T07:19:37.309Z,99.90
2018-08-11T07:22:09.504Z,99.90
2018-08-11T07:24:41.739Z,99.90
2018-08-11T07:27:13.669Z,99.90
2018-08-11T07:29:44.409Z,99.90
2018-08-11T07:32:14.893Z,99.90
2018-08-11T07:34:45.316Z,99.90
2018-08-11T07:37:15.644Z,99.90
2018-08-11T07:39:46.080Z,99.90
2018-08-11T07:42:16.664Z,99.90
2018-08-11T07:44:47.488Z,99.90
2018-08-11T07:47:17.875Z,99.90
2018-08-11T07:49:48.449Z,99.90
2018-08-11T07:52:18.844Z,99.90
2018-08-11T07:54:49.255Z,99.90
2018-08-11T07:57:19.749Z,99.90
2018-08-11T07:59:50.453Z,99.90
2018-08-11T08:02:21.297Z,99.90
2018-08-11T08:04:51.695Z,99.90
2018-08-11T08:07:22.470Z,99.90
2018-08-11T08:09:54.331Z,99.90
2018-08-11T08:12:24.755Z,99.90
2018-08-11T08:14:55.251Z,99.90
2018-08-11T08:17:25.731Z,99.90
2018-08-11T08:19:56.387Z,99.90
2018-08-11T08:22:26.964Z,99.90
2018-08-11T08:24:58.038Z,99.90
2018-08-11T08:27:28.288Z,99.90
2018-08-11T08:29:59.144Z,99.90
2018-08-11T08:32:29.687Z,99.90
2018-08-11T08:35:00.089Z,99.90
2018-08-11T08:37:30.598Z,99.90
2018-08-11T08:40:01.058Z,99.90
2018-08-11T08:42:31.571Z,99.90
2018-08-11T08:45:02.192Z,99.90
2018-08-11T08:47:33.366Z,99.90
2018-08-11T08:50:05.368Z,99.90
2018-08-11T08:52:39.449Z,99.90
2018-08-11T08:55:09.889Z,99.90
2018-08-11T08:57:40.327Z,99.90
2018-08-11T09:00:10.751Z,99.90
2018-08-11T09:02:41.492Z,99.90
2018-08-11T09:05:11.997Z,99.90
2018-08-11T09:07:42.761Z,99.90
2018-08-11T09:10:14.490Z,99.90
2018-08-11T09:12:44.935Z,99.90
2018-08-11T09:15:15.410Z,99.90
2018-08-11T09:17:46.121Z,99.90
2018-08-11T09:20:16.644Z,99.90
2018-08-11T09:22:47.112Z,99.90
2018-08-11T09:25:17.793Z,99.90
2018-08-11T09:27:48.636Z,99.90
2018-08-11T09:30:19.596Z,99.90
2018-08-11T09:32:50.062Z,99.90
2018-08-11T09:35:20.787Z,99.90
2018-08-11T09:37:51.260Z,99.90
2018-08-11T09:40:21.692Z,99.90
2018-08-11T09:42:52.071Z,99.90
2018-08-11T09:45:22.629Z,99.90
2018-08-11T09:47:52.979Z,99.90
2018-08-11T09:50:23.721Z,99.90
2018-08-11T09:52:54.219Z,99.90
2018-08-11T09:55:24.678Z,99.90
2018-08-11T09:57:55.307Z,99.90
2018-08-11T10:00:30.113Z,99.90
2018-08-11T10:03:00.466Z,99.90
2018-08-11T10:05:31.131Z,99.90
2018-08-11T10:08:01.585Z,99.90
2018-08-11T10:10:32.227Z,99.90
2018-08-11T10:13:02.903Z,99.90
2018-08-11T10:15:33.535Z,99.90
2018-08-11T10:18:03.925Z,99.90
2018-08-11T10:20:34.333Z,99.90
2018-08-11T10:23:04.611Z,99.90
2018-08-11T10:25:35.787Z,99.90
2018-08-11T10:28:06.221Z,99.90
2018-08-11T10:30:37.661Z,99.90
2018-08-11T10:33:08.232Z,99.90
2018-08-11T10:35:38.715Z,99.90
2018-08-11T10:38:08.996Z,99.90
2018-08-11T10:40:39.464Z,99.90
2018-08-11T10:43:10.215Z,99.90
2018-08-11T10:45:40.791Z,99.90
2018-08-11T10:48:11.012Z,99.90
2018-08-11T10:50:42.494Z,99.90
2018-08-11T10:53:12.907Z,99.90
2018-08-11T10:55:43.597Z,99.90
2018-08-11T10:58:14.530Z,99.90
2018-08-11T11:00:45.117Z,99.90
2018-08-11T11:03:15.679Z,99.90
2018-08-11T11:05:46.273Z,99.90
2018-08-11T11:08:16.826Z,99.90
2018-08-11T11:10:49.044Z,99.90
2018-08-11T11:13:19.500Z,99.90
2018-08-11T11:15:50.056Z,99.90
2018-08-11T11:18:20.546Z,99.90
2018-08-11T11:20:51.019Z,99.90
2018-08-11T11:23:21.371Z,99.90
2018-08-11T11:25:52.292Z,99.90
2018-08-11T11:28:22.814Z,99.90
2018-08-11T11:30:55.628Z,99.90
2018-08-11T11:33:25.989Z,99.90
2018-08-11T11:35:56.605Z,99.90
2018-08-11T11:38:26.989Z,99.90
2018-08-11T11:40:57.466Z,99.90
2018-08-11T11:43:28.090Z,99.90
2018-08-11T11:45:58.833Z,99.90
2018-08-11T11:48:29.206Z,99.90
2018-08-11T11:50:59.884Z,99.90
2018-08-11T11:53:30.233Z,99.90
2018-08-11T11:56:00.752Z,99.90
2018-08-11T11:58:31.276Z,99.90
2018-08-11T12:01:01.562Z,99.90
2018-08-11T12:03:32.114Z,99.90
2018-08-11T12:06:02.644Z,99.90
2018-08-11T12:08:33.713Z,99.90
2018-08-11T12:11:04.313Z,99.90
2018-08-11T12:13:36.289Z,99.90
2018-08-11T12:16:14.712Z,99.90
2018-08-11T12:18:45.331Z,99.90
2018-08-11T12:21:15.845Z,99.90
2018-08-11T12:23:46.478Z,99.90
2018-08-11T12:26:16.869Z,99.90
2018-08-11T12:28:47.229Z,99.90
2018-08-11T12:31:17.810Z,99.90
2018-08-11T12:33:48.506Z,99.90
2018-08-11T12:36:18.917Z,99.90
2018-08-11T12:38:49.407Z,99.90
2018-08-11T12:41:19.702Z,99.90
2018-08-11T12:43:50.331Z,99.90
2018-08-11T12:46:21.422Z,99.90
2018-08-11T12:48:53.129Z,99.90
2018-08-11T12:51:56.126Z,99.90
2018-08-11T12:54:26.591Z,99.90
2018-08-11T12:56:57.141Z,99.90
2018-08-11T12:59:27.622Z,99.90
2018-08-11T13:01:58.079Z,99.90
2018-08-11T13:04:28.750Z,99.90
2018-08-11T13:06:59.402Z,99.90
2018-08-11T13:09:30.000Z,99.90
2018-08-11T13:12:00.852Z,99.90
2018-08-11T13:14:31.555Z,99.90
2018-08-11T13:17:02.865Z,99.90
2018-08-11T13:19:33.678Z,99.90
2018-08-11T13:22:04.830Z,99.90
2018-08-11T13:24:35.474Z,99.90
2018-08-11T13:27:05.941Z,99.90
2018-08-11T13:29:36.490Z,99.90
2018-08-11T13:32:07.386Z,99.90
2018-08-11T13:34:37.834Z,99.90
2018-08-11T13:37:08.672Z,99.90
2018-08-11T13:39:39.414Z,99.90
2018-08-11T13:42:09.874Z,99.90
2018-08-11T13:44:40.536Z,99.90
2018-08-11T13:47:11.159Z,99.90
2018-08-11T13:49:42.201Z,99.90
2018-08-11T13:52:12.876Z,99.90
2018-08-11T13:54:43.558Z,99.90
2018-08-11T13:57:14.215Z,99.90
2018-08-11T13:59:44.689Z,99.90
2018-08-11T14:02:15.282Z,99.90
2018-08-11T14:04:46.799Z,99.90
2018-08-11T14:07:17.197Z,99.90
2018-08-11T14:09:48.429Z,99.90
2018-08-11T14:12:19.086Z,99.90
2018-08-11T14:14:49.720Z,99.90
2018-08-11T14:17:20.920Z,99.90
2018-08-11T14:19:51.966Z,99.90
2018-08-11T14:22:22.763Z,99.90
2018-08-11T14:24:53.338Z,99.90
2018-08-11T14:27:23.672Z,99.90
2018-08-11T14:29:54.287Z,99.90
2018-08-11T14:32:27.823Z,99.90
2018-08-11T14:34:58.777Z,99.40
2018-08-11T14:37:29.740Z,98.50
2018-08-11T14:40:00.971Z,96.90
2018-08-11T14:42:31.757Z,95.60
2018-08-11T14:45:03.350Z,94.90
2018-08-11T14:47:33.971Z,93.20
2018-08-11T14:50:05.047Z,92.00
2018-08-11T14:52:37.342Z,91.00
2018-08-11T14:55:08.227Z,87.80
2018-08-11T14:57:38.722Z,82.90
2018-08-11T15:00:11.162Z,79.50
2018-08-11T15:02:41.876Z,76.60
2018-08-11T15:05:12.806Z,72.50
2018-08-11T15:07:44.348Z,71.90
2018-08-11T15:10:15.630Z,72.50
2018-08-11T15:12:46.448Z,72.80
2018-08-11T15:15:18.185Z,71.90
2018-08-11T15:17:49.275Z,71.30
2018-08-11T15:20:19.978Z,70.40
2018-08-11T15:22:50.773Z,70.00
2018-08-11T15:25:21.246Z,69.20
2018-08-11T15:27:52.089Z,68.90
2018-08-11T15:30:23.092Z,67.90
2018-08-11T15:32:54.084Z,66.40
2018-08-11T15:35:25.694Z,65.90
2018-08-11T15:37:56.690Z,63.70
2018-08-11T15:40:27.285Z,64.10
2018-08-11T15:42:58.155Z,62.50
2018-08-11T15:45:29.367Z,61.50
2018-08-11T15:48:00.585Z,60.00
2018-08-11T15:50:31.358Z,60.80
2018-08-11T15:53:02.209Z,60.40
2018-08-11T15:55:32.718Z,59.00
2018-08-11T15:58:03.461Z,59.30
2018-08-11T16:00:33.770Z,58.90
2018-08-11T16:03:04.486Z,58.20
2018-08-11T16:05:35.091Z,57.10
2018-08-11T16:08:05.772Z,56.10
2018-08-11T16:10:36.266Z,54.70
2018-08-11T16:14:35.770Z,55.30
2018-08-11T16:17:06.281Z,54.40
2018-08-11T16:19:37.132Z,54.20
2018-08-11T16:22:07.958Z,52.80
2018-08-11T16:24:39.437Z,52.50
2018-08-11T16:27:10.195Z,52.30
2018-08-11T16:29:40.860Z,51.30
2018-08-11T16:32:11.213Z,51.80
2018-08-11T16:34:42.952Z,50.70
2018-08-11T16:37:14.458Z,49.30
2018-08-11T16:39:45.074Z,48.60
2018-08-11T16:42:15.425Z,49.90
2018-08-11T16:44:46.210Z,48.70
2018-08-11T16:47:16.703Z,48.30
2018-08-11T16:49:48.298Z,46.80
2018-08-11T16:52:18.724Z,47.60
2018-08-11T16:54:49.445Z,46.30
2018-08-11T16:57:19.976Z,47.30
2018-08-11T16:59:51.733Z,46.60
2018-08-11T17:02:22.486Z,45.50
2018-08-11T17:04:52.836Z,46.70
2018-08-11T17:07:24.284Z,46.30
2018-08-11T17:09:54.864Z,46.80
2018-08-11T17:12:26.462Z,46.40
2018-08-11T17:14:57.071Z,45.60
2018-08-11T17:17:28.461Z,42.90
2018-08-11T17:20:01.690Z,44.00
2018-08-11T17:22:32.415Z,45.40
2018-08-11T17:25:03.082Z,46.00
2018-08-11T17:27:33.671Z,44.60
2018-08-11T17:30:05.036Z,44.40
2018-08-11T17:32:37.819Z,44.60
2018-08-11T17:35:10.898Z,44.10
2018-08-11T17:37:44.674Z,43.00
2018-08-11T17:40:16.797Z,43.20
2018-08-11T17:42:49.239Z,42.00
2018-08-11T17:45:21.505Z,43.20
2018-08-11T17:47:53.802Z,44.10
2018-08-11T17:50:26.016Z,43.80
2018-08-11T17:52:58.311Z,43.80
2018-08-11T17:55:30.762Z,42.60
2018-08-11T17:58:03.141Z,42.50
2018-08-11T18:00:35.664Z,42.30
2018-08-11T18:03:10.420Z,43.00
2018-08-11T18:05:42.653Z,42.10
2018-08-11T18:08:14.826Z,42.10
2018-08-11T18:10:47.244Z,41.90
2018-08-11T18:13:19.612Z,42.50
2018-08-11T18:15:52.172Z,42.10
2018-08-11T18:18:24.784Z,42.10
2018-08-11T18:20:57.155Z,41.60
2018-08-11T18:23:29.895Z,43.60
2018-08-11T18:26:02.295Z,44.70
2018-08-11T18:28:34.711Z,42.90
2018-08-11T18:31:10.578Z,42.20
2018-08-11T18:33:43.326Z,41.00
2018-08-11T18:36:15.991Z,41.80
2018-08-11T18:38:48.363Z,41.20
2018-08-11T18:41:21.923Z,41.10
2018-08-11T18:43:54.735Z,42.80
2018-08-11T18:46:27.306Z,41.30
2018-08-11T18:49:00.619Z,41.10
2018-08-11T18:51:33.344Z,39.90
2018-08-11T18:54:07.559Z,42.00
2018-08-11T18:56:40.067Z,41.20
2018-08-11T18:59:14.581Z,41.80
2018-08-11T19:01:46.888Z,40.50
2018-08-11T19:04:19.595Z,38.50
2018-08-11T19:06:52.760Z,39.20
2018-08-11T19:09:24.817Z,39.00
2018-08-11T19:11:57.101Z,38.90
2018-08-11T19:14:29.216Z,38.60
2018-08-11T19:17:01.465Z,39.40
2018-08-11T19:19:33.801Z,39.80
2018-08-11T19:22:06.078Z,39.50
2018-08-11T19:24:38.362Z,38.70
2018-08-11T19:27:10.451Z,39.20
2018-08-11T19:29:42.556Z,40.70
2018-08-11T19:32:14.779Z,40.00
2018-08-11T19:34:47.279Z,39.60
2018-08-11T19:37:21.048Z,40.30
2018-08-11T19:39:53.413Z,40.50
2018-08-11T19:42:25.425Z,38.90
2018-08-11T19:44:58.522Z,38.90
2018-08-11T19:47:30.976Z,39.90
2018-08-11T19:50:03.070Z,39.80
2018-08-11T19:52:35.183Z,39.80
2018-08-11T19:55:08.078Z,37.60
2018-08-11T19:57:40.602Z,37.40
2018-08-11T20:00:15.796Z,37.60
2018-08-11T20:02:47.930Z,38.80
2018-08-11T20:05:20.099Z,38.10
2018-08-11T20:07:52.504Z,38.40
2018-08-11T20:10:25.029Z,38.00
2018-08-11T20:12:57.399Z,36.90
2018-08-11T20:15:29.633Z,37.80
2018-08-11T20:18:02.831Z,36.50
2018-08-11T20:20:35.329Z,37.00
2018-08-11T20:23:08.092Z,36.00
2018-08-11T20:25:40.556Z,37.70
2018-08-11T20:28:13.614Z,38.20
2018-08-11T20:30:45.836Z,38.70
2018-08-11T20:33:18.153Z,39.00
2018-08-11T20:35:50.486Z,38.60
2018-08-11T20:38:23.184Z,38.30
2018-08-11T20:40:55.375Z,38.90
2018-08-11T20:43:27.512Z,39.20
2018-08-11T20:45:59.756Z,41.10
2018-08-11T20:48:31.908Z,41.60
2018-08-11T20:51:04.132Z,39.70
2018-08-11T20:53:36.626Z,41.20
2018-08-11T20:56:08.865Z,42.70
2018-08-11T20:58:41.497Z,43.20
2018-08-11T21:01:14.015Z,43.30
2018-08-11T21:03:46.247Z,42.10
2018-08-11T21:06:18.478Z,41.10
2018-08-11T21:08:50.885Z,40.60
2018-08-11T21:11:23.226Z,40.10
2018-08-11T21:13:55.501Z,39.60
2018-08-11T21:16:27.542Z,39.10
2018-08-11T21:18:59.762Z,40.00
2018-08-11T21:21:31.991Z,41.40
2018-08-11T21:24:04.491Z,41.40
2018-08-11T21:26:36.700Z,41.80
2018-08-11T21:29:09.413Z,42.10
2018-08-11T21:31:41.728Z,41.80
2018-08-11T21:34:14.229Z,41.20
2018-08-11T21:36:46.828Z,41.70
2018-08-11T21:39:19.243Z,40.70
2018-08-11T21:41:51.344Z,42.10
2018-08-11T21:44:23.581Z,43.00
2018-08-11T21:46:55.793Z,42.50
2018-08-11T21:49:27.961Z,43.10
2018-08-11T21:52:00.061Z,43.40
2018-08-11T21:54:32.521Z,43.10
2018-08-11T21:57:05.012Z,42.90
2018-08-11T21:59:37.554Z,43.40
2018-08-11T22:02:11.870Z,42.60
2018-08-11T22:04:43.904Z,41.70
2018-08-11T22:07:16.227Z,42.20
2018-08-11T22:09:48.579Z,42.10
2018-08-11T22:12:20.781Z,42.10
2018-08-11T22:14:53.106Z,43.40
2018-08-11T22:17:25.341Z,43.50
2018-08-11T22:19:57.516Z,43.40
2018-08-11T22:22:29.803Z,42.40
2018-08-11T22:25:02.231Z,40.60
2018-08-11T22:27:34.184Z,39.90
2018-08-11T22:30:06.780Z,42.80
2018-08-11T22:32:38.961Z,44.50
2018-08-11T22:35:13.354Z,45.10
2018-08-11T22:37:45.438Z,45.70
2018-08-11T22:40:17.586Z,45.40
2018-08-11T22:42:50.046Z,46.50
2018-08-11T22:45:22.482Z,46.10
2018-08-11T22:47:56.051Z,47.00
2018-08-11T22:50:28.445Z,48.90
2018-08-11T22:53:00.772Z,48.70
2018-08-11T22:55:33.003Z,47.70
2018-08-11T22:58:05.414Z,46.40
2018-08-11T23:00:38.122Z,47.20
2018-08-11T23:03:11.418Z,48.20
2018-08-11T23:05:43.738Z,49.00
2018-08-11T23:08:15.829Z,49.70
2018-08-11T23:10:47.862Z,48.20
2018-08-11T23:13:20.207Z,48.80
2018-08-11T23:15:52.238Z,49.60
2018-08-11T23:18:24.328Z,48.20
2018-08-11T23:20:56.355Z,47.70
2018-08-11T23:23:28.796Z,48.90
2018-08-11T23:26:00.964Z,51.70
2018-08-11T23:28:33.212Z,53.70
2018-08-11T23:31:05.409Z,53.40
2018-08-11T23:33:37.609Z,54.40
2018-08-11T23:36:10.175Z,55.80
2018-08-11T23:38:42.582Z,55.40
2018-08-11T23:41:15.857Z,55.30
2018-08-11T23:43:48.051Z,56.70
2018-08-11T23:46:20.487Z,56.50
2018-08-11T23:48:53.756Z,57.00
2018-08-11T23:51:25.892Z,58.20
2018-08-11T23:53:57.914Z,58.90
2018-08-11T23:56:30.026Z,58.10
2018-08-11T23:59:02.193Z,59.00
